createdAt,value
2022-12-31T00:00:16.896Z,8.49
2022-12-31T00:05:12.964Z,8.52
2022-12-31T00:10:09.231Z,8.7
2022-12-31T00:15:05.487Z,8.79
2022-12-31T00:20:01.717Z,8.97
2022-12-31T00:24:58.017Z,9.2
2022-12-31T00:29:55.066Z,9.12
2022-12-31T00:34:53.511Z,9.17
2022-12-31T00:39:49.733Z,9.48
2022-12-31T00:44:46.050Z,9.54
2022-12-31T00:49:42.301Z,9.61
2022-12-31T00:54:38.534Z,9.42
2022-12-31T00:59:34.812Z,9.25
2022-12-31T01:04:32.073Z,9.72
2022-12-31T01:09:28.313Z,9.04
2022-12-31T01:14:25.624Z,9.49
2022-12-31T01:19:23.853Z,10.21
2022-12-31T01:24:20.120Z,10.39
2022-12-31T01:29:16.351Z,9.61
2022-12-31T01:34:12.596Z,9.53
2022-12-31T01:39:08.895Z,10.06
2022-12-31T01:44:22.128Z,9.59
2022-12-31T01:49:22.310Z,9.48
2022-12-31T01:54:19.592Z,9.32
2022-12-31T01:59:18.821Z,9.52
2022-12-31T02:04:16.114Z,9.63
2022-12-31T02:09:11.364Z,9.78
2022-12-31T02:14:09.628Z,9.78
2022-12-31T02:19:15.844Z,9.31
2022-12-31T02:24:34.101Z,9.37
2022-12-31T02:29:46.281Z,9.9
2022-12-31T02:34:47.501Z,9.67
2022-12-31T02:39:44.795Z,9.78
2022-12-31T02:44:46.042Z,9.63
2022-12-31T02:49:53.234Z,9.5
2022-12-31T02:54:58.552Z,9.3
2022-12-31T02:59:58.720Z,9.42
2022-12-31T03:04:55.015Z,9.23
2022-12-31T03:09:50.268Z,9.57
2022-12-31T03:14:46.531Z,9.65
2022-12-31T03:19:42.778Z,9.47
2022-12-31T03:24:39.057Z,9.74
2022-12-31T03:29:35.292Z,9.86
2022-12-31T03:34:31.558Z,9.96
2022-12-31T03:39:27.812Z,9.85
2022-12-31T03:44:24.099Z,9.76
2022-12-31T03:49:20.376Z,9.86
2022-12-31T03:54:16.623Z,9.91
2022-12-31T03:59:12.896Z,10.02
2022-12-31T04:04:09.144Z,9.85
2022-12-31T04:09:05.387Z,9.85
2022-12-31T04:14:05.635Z,9.93
2022-12-31T04:19:01.893Z,9.96
2022-12-31T04:23:58.147Z,10.22
2022-12-31T04:28:54.430Z,9.81
2022-12-31T04:33:50.666Z,9.98
2022-12-31T04:38:46.944Z,10.22
2022-12-31T04:43:44.188Z,9.72
2022-12-31T04:48:40.465Z,9.96
2022-12-31T04:53:36.677Z,10.1
2022-12-31T04:58:32.969Z,10.15
2022-12-31T05:03:29.230Z,10.03
2022-12-31T05:08:25.495Z,10.02
2022-12-31T05:13:21.719Z,10.06
2022-12-31T05:18:17.967Z,9.93
2022-12-31T05:23:14.244Z,9.79
2022-12-31T05:28:10.573Z,10.06
2022-12-31T05:33:06.803Z,9.92
2022-12-31T05:38:03.087Z,9.48
2022-12-31T05:42:59.330Z,9.51
2022-12-31T05:47:54.571Z,9.52
2022-12-31T05:52:50.828Z,9.41
2022-12-31T05:57:47.115Z,9.38
2022-12-31T06:02:43.371Z,9.29
2022-12-31T06:07:39.616Z,9.15
2022-12-31T06:12:35.842Z,9.22
2022-12-31T06:17:33.096Z,9.23
2022-12-31T06:22:29.369Z,9.46
2022-12-31T06:27:25.689Z,9.52
2022-12-31T06:32:21.875Z,9.66
2022-12-31T06:37:18.164Z,9.61
2022-12-31T06:42:14.414Z,9.62
2022-12-31T06:47:09.652Z,9.61
2022-12-31T06:52:05.948Z,10.05
2022-12-31T06:57:02.235Z,10.82
2022-12-31T07:02:09.458Z,10.77
2022-12-31T07:07:13.687Z,10.43
2022-12-31T07:12:19.886Z,9.89
2022-12-31T07:17:26.188Z,9.52
2022-12-31T07:22:24.401Z,9.53
2022-12-31T07:27:33.671Z,9.31
2022-12-31T07:32:40.817Z,9.36
2022-12-31T07:37:42.083Z,9.55
2022-12-31T07:42:45.324Z,9.6
2022-12-31T07:47:47.824Z,9.86
2022-12-31T07:52:44.858Z,10.16
2022-12-31T07:57:45.097Z,9.99
2022-12-31T08:02:57.409Z,9.97
2022-12-31T08:08:02.506Z,10.19
2022-12-31T08:13:04.783Z,10.27
2022-12-31T08:18:02.300Z,10.36
2022-12-31T08:23:09.301Z,10.67
2022-12-31T08:28:14.519Z,10.71
2022-12-31T08:33:18.778Z,10.86
2022-12-31T08:38:21.063Z,10.85
2022-12-31T08:43:30.294Z,12.87
2022-12-31T08:48:37.446Z,12.24
2022-12-31T08:53:33.695Z,11.82
2022-12-31T08:58:41.550Z,11.85
2022-12-31T09:03:53.228Z,12.17
2022-12-31T09:08:57.443Z,12.19
2022-12-31T09:14:02.671Z,12.18
2022-12-31T09:18:58.914Z,12.48
2022-12-31T09:23:55.168Z,12.73
2022-12-31T09:29:01.439Z,12.95
2022-12-31T09:34:06.695Z,13.14
2022-12-31T09:39:11.949Z,13.26
2022-12-31T09:44:22.125Z,13.66
2022-12-31T09:49:32.423Z,14.44
2022-12-31T09:54:44.579Z,13.97
2022-12-31T09:59:47.796Z,13.96
2022-12-31T10:04:56.541Z,14.09
2022-12-31T10:10:07.244Z,14.23
2022-12-31T10:15:23.485Z,15.11
2022-12-31T10:20:43.350Z,15.81
2022-12-31T10:25:59.621Z,15.94
2022-12-31T10:31:03.257Z,15.59
2022-12-31T10:36:04.350Z,16.27
2022-12-31T10:41:18.861Z,16.54
2022-12-31T10:46:36.798Z,16.79
2022-12-31T10:51:52.973Z,16.99
2022-12-31T11:02:16.727Z,17.27
2022-12-31T11:07:28.649Z,17.2
2022-12-31T11:12:34.875Z,16.68
2022-12-31T11:17:44.555Z,17.11
2022-12-31T11:22:56.340Z,16.77
2022-12-31T11:28:02.562Z,17.29
2022-12-31T11:33:10.805Z,16.56
2022-12-31T11:38:18.031Z,16.74
2022-12-31T11:43:22.272Z,16.53
2022-12-31T11:48:32.018Z,17.11
2022-12-31T11:53:42.708Z,17.62
2022-12-31T11:58:46.942Z,17.42
2022-12-31T12:03:44.289Z,17.71
2022-12-31T12:08:42.472Z,18.23
2022-12-31T12:13:43.686Z,18.18
2022-12-31T12:18:47.345Z,18.14
2022-12-31T12:23:54.171Z,18.41
2022-12-31T12:28:52.457Z,19.05
2022-12-31T12:33:50.778Z,19.66
2022-12-31T12:38:53.939Z,19.45
2022-12-31T12:43:58.168Z,18.45
2022-12-31T12:49:02.464Z,17.33
2022-12-31T12:54:13.682Z,16.89
2022-12-31T12:59:26.891Z,16.78
2022-12-31T13:04:42.228Z,16.45
2022-12-31T13:09:51.287Z,15.88
2022-12-31T13:14:58.785Z,15.62
2022-12-31T13:20:02.781Z,15.69
2022-12-31T13:25:14.037Z,15.63
2022-12-31T13:30:14.260Z,15.46
2022-12-31T13:35:21.515Z,15.36
2022-12-31T13:40:20.715Z,15.2
2022-12-31T13:45:22.972Z,15.17
2022-12-31T13:50:23.314Z,15.06
2022-12-31T13:55:28.445Z,14.9
2022-12-31T14:00:32.735Z,16.04
2022-12-31T14:05:33.113Z,15.64
2022-12-31T14:10:35.176Z,15.27
2022-12-31T14:20:51.301Z,15.12
2022-12-31T14:25:54.896Z,16.24
2022-12-31T14:30:56.191Z,17.73
2022-12-31T14:36:10.805Z,18.19
2022-12-31T14:41:23.639Z,16.95
2022-12-31T14:46:28.820Z,17.08
2022-12-31T14:51:27.080Z,16.98
2022-12-31T14:56:31.336Z,15.93
2022-12-31T15:01:28.792Z,14.78
2022-12-31T15:06:34.091Z,14.19
2022-12-31T15:11:45.018Z,14.08
2022-12-31T15:16:55.370Z,13.84
2022-12-31T15:22:06.074Z,13.55
2022-12-31T15:27:10.167Z,13.41
2022-12-31T15:32:12.997Z,13.27
2022-12-31T15:37:19.570Z,12.94
2022-12-31T15:42:37.798Z,12.84
2022-12-31T15:47:36.652Z,12.61
2022-12-31T15:52:38.867Z,12.32
2022-12-31T15:57:37.282Z,12.37
2022-12-31T16:02:33.628Z,12.19
2022-12-31T16:07:31.668Z,12.06
2022-12-31T16:12:44.366Z,12.06
2022-12-31T16:17:44.115Z,12.31
2022-12-31T16:27:52.686Z,12.37
2022-12-31T16:32:50.888Z,12.26
2022-12-31T16:37:48.137Z,12.25
2022-12-31T16:42:49.390Z,12.05
2022-12-31T16:47:49.066Z,11.66
2022-12-31T16:52:58.904Z,11.65
2022-12-31T16:58:04.043Z,11.67
2022-12-31T17:03:07.626Z,11.75
2022-12-31T17:08:20.542Z,11.67
2022-12-31T17:13:29.150Z,11.7
2022-12-31T17:18:30.584Z,11.66
2022-12-31T17:23:32.271Z,11.19
2022-12-31T17:28:37.498Z,11.01
2022-12-31T17:33:33.775Z,10.83
2022-12-31T17:38:35.976Z,10.98
2022-12-31T17:43:35.434Z,10.89
2022-12-31T17:48:31.534Z,10.85
2022-12-31T17:53:29.817Z,10.84
2022-12-31T17:58:30.135Z,10.85
2022-12-31T18:03:26.802Z,10.89
2022-12-31T18:08:23.545Z,10.67
2022-12-31T18:13:22.849Z,10.32
2022-12-31T18:18:24.383Z,10.4
2022-12-31T18:23:22.559Z,10.57
2022-12-31T18:28:19.564Z,10.58
2022-12-31T18:33:16.807Z,10.65
2022-12-31T18:38:14.090Z,10.4
2022-12-31T18:43:14.352Z,10.48
2022-12-31T18:48:16.230Z,10.5
2022-12-31T18:58:22.626Z,10.08
2022-12-31T19:03:21.166Z,9.9
2022-12-31T19:08:18.545Z,10.38
2022-12-31T19:13:15.857Z,9.91
2022-12-31T19:18:17.092Z,10.13
2022-12-31T19:23:15.289Z,10.29
2022-12-31T19:28:14.598Z,10.2
2022-12-31T19:33:10.855Z,10.49
2022-12-31T19:38:12.113Z,10.58
2022-12-31T19:43:13.816Z,10.17
2022-12-31T19:48:11.591Z,10.38
2022-12-31T19:53:09.811Z,10.28
2022-12-31T19:58:08.064Z,10.15
2022-12-31T20:03:04.455Z,9.53
2022-12-31T20:08:00.651Z,8.92
2022-12-31T20:12:56.880Z,9.41
2022-12-31T20:17:57.144Z,9.68
2022-12-31T20:22:57.393Z,9.96
2022-12-31T20:27:53.645Z,9.2
2022-12-31T20:32:50.923Z,8.6
2022-12-31T20:37:49.143Z,8.85
2022-12-31T20:42:45.368Z,9.37
2022-12-31T20:47:41.695Z,8.55
2022-12-31T20:52:37.919Z,9.23
2022-12-31T20:57:34.270Z,9.76
2022-12-31T21:02:41.599Z,9.87
2022-12-31T21:07:31.897Z,9.71
2022-12-31T21:12:27.931Z,9.58
2022-12-31T21:17:24.203Z,9.81
2022-12-31T21:22:20.476Z,9.98
2022-12-31T21:27:17.709Z,9.79
2022-12-31T21:32:14.270Z,9.56
2022-12-31T21:37:10.273Z,9.87
2022-12-31T21:42:06.500Z,9.99
2022-12-31T21:47:33.756Z,10.2
2022-12-31T21:52:04.109Z,10.1
2022-12-31T21:57:00.317Z,10.21
2022-12-31T22:01:57.646Z,9.68
2022-12-31T22:06:54.756Z,8.76
2022-12-31T22:11:52.249Z,8.28
2022-12-31T22:16:49.290Z,8.19
2022-12-31T22:21:46.709Z,7.79
2022-12-31T22:26:46.826Z,7.76
2022-12-31T22:31:45.130Z,7.54
2022-12-31T22:36:43.273Z,7.9
2022-12-31T22:41:40.572Z,8.67
2022-12-31T22:46:40.898Z,9.31
2022-12-31T22:51:56.255Z,9.21
2022-12-31T23:01:48.582Z,9.64
2022-12-31T23:06:46.526Z,9.59
2022-12-31T23:11:43.173Z,9.75
2022-12-31T23:16:43.755Z,9.59
2022-12-31T23:21:41.571Z,9.78
2022-12-31T23:26:38.727Z,9.67
2022-12-31T23:31:39.144Z,9.43
2022-12-31T23:36:35.304Z,9.51
2022-12-31T23:41:32.572Z,9.57
2022-12-31T23:46:29.064Z,9.45
2022-12-31T23:51:25.126Z,9.56
2022-12-31T23:56:24.072Z,9.43
